createdAt,value
2022-10-11T00:00:12.267Z,31.70
2022-10-11T00:02:39.351Z,31.23
2022-10-11T00:05:07.923Z,32.88
2022-10-11T00:07:36.547Z,29.67
2022-10-11T00:10:05.987Z,29.63
2022-10-11T00:12:34.623Z,27.55
2022-10-11T00:15:02.041Z,30.55
2022-10-11T00:17:29.437Z,27.42
2022-10-11T00:19:56.622Z,30.75
2022-10-11T00:22:23.820Z,30.73
2022-10-11T00:24:52.624Z,30.40
2022-10-11T00:27:19.844Z,28.23
2022-10-11T00:29:46.926Z,33.42
2022-10-11T00:32:14.039Z,26.55
2022-10-11T00:34:41.261Z,27.77
2022-10-11T00:37:08.395Z,27.98
2022-10-11T00:39:35.535Z,27.73
2022-10-11T00:42:02.863Z,31.92
2022-10-11T00:44:32.926Z,27.95
2022-10-11T00:47:03.401Z,30.63
2022-10-11T00:49:34.947Z,29.13
2022-10-11T00:52:07.356Z,30.45
2022-10-11T00:54:39.110Z,27.35
2022-10-11T00:57:12.078Z,33.58
2022-10-11T00:59:45.247Z,31.63
2022-10-11T01:02:13.294Z,29.85
2022-10-11T01:04:41.744Z,33.97
2022-10-11T01:07:09.858Z,30.08
2022-10-11T01:09:37.366Z,33.35
2022-10-11T01:12:12.066Z,32.55
2022-10-11T01:15:03.678Z,31.05
2022-10-11T01:17:59.400Z,32.10
2022-10-11T01:20:38.324Z,30.45
2022-10-11T01:23:42.765Z,31.58
2022-10-11T01:29:17.018Z,32.13
2022-10-11T01:31:51.994Z,34.33
2022-10-11T01:34:40.287Z,31.73
2022-10-11T01:37:33.115Z,32.55
2022-10-11T01:40:12.705Z,31.52
2022-10-11T01:42:42.282Z,28.92
2022-10-11T01:45:13.943Z,33.40
2022-10-11T01:47:42.535Z,35.85
2022-10-11T01:50:34.452Z,30.80
2022-10-11T01:53:15.307Z,34.15
2022-10-11T01:56:07.243Z,37.42
2022-10-11T01:59:12.139Z,38.58
2022-10-11T02:02:02.205Z,33.33
2022-10-11T02:04:38.090Z,36.00
2022-10-11T02:07:19.510Z,32.58
2022-10-11T02:10:11.724Z,35.03
2022-10-11T02:12:47.398Z,35.67
2022-10-11T02:15:17.268Z,36.83
2022-10-11T02:17:49.217Z,40.75
2022-10-11T02:20:21.271Z,39.65
2022-10-11T02:22:53.346Z,35.88
2022-10-11T02:25:25.186Z,35.55
2022-10-11T02:27:57.229Z,36.33
2022-10-11T02:30:24.378Z,34.05
2022-10-11T02:32:53.848Z,41.30
2022-10-11T02:35:25.135Z,36.03
2022-10-11T02:38:22.833Z,41.05
2022-10-11T02:41:11.658Z,42.83
2022-10-11T02:43:45.359Z,44.65
2022-10-11T02:48:40.068Z,42.03
2022-10-11T02:51:13.247Z,42.15
2022-10-11T02:53:40.417Z,46.13
2022-10-11T02:56:08.146Z,39.63
2022-10-11T02:58:35.969Z,49.33
2022-10-11T03:01:03.083Z,48.35
2022-10-11T03:03:30.178Z,43.63
2022-10-11T03:06:02.393Z,40.85
2022-10-11T03:08:30.231Z,40.95
2022-10-11T03:10:57.452Z,41.25
2022-10-11T03:13:24.674Z,40.42
2022-10-11T03:16:02.920Z,42.85
2022-10-11T03:18:31.478Z,39.03
2022-10-11T03:20:58.696Z,42.60
2022-10-11T03:23:25.819Z,46.25
2022-10-11T03:25:52.963Z,47.25
2022-10-11T03:28:20.645Z,39.55
2022-10-11T03:30:51.435Z,47.10
2022-10-11T03:33:19.190Z,48.22
2022-10-11T03:35:47.636Z,45.00
2022-10-11T03:38:17.645Z,41.17
2022-10-11T03:40:44.746Z,47.25
2022-10-11T03:43:11.871Z,49.88
2022-10-11T03:45:39.654Z,42.08
2022-10-11T03:48:06.779Z,48.13
2022-10-11T03:50:33.972Z,46.67
2022-10-11T03:53:01.114Z,49.33
2022-10-11T03:55:28.214Z,50.05
2022-10-11T03:57:55.308Z,60.95
2022-10-11T04:00:22.643Z,56.22
2022-10-11T04:02:49.802Z,49.55
2022-10-11T04:05:17.156Z,56.17
2022-10-11T04:07:44.318Z,41.55
2022-10-11T04:10:11.445Z,52.00
2022-10-11T04:12:39.129Z,53.05
2022-10-11T04:15:07.322Z,57.30
2022-10-11T04:17:34.417Z,49.88
2022-10-11T04:20:01.573Z,55.83
2022-10-11T04:22:28.760Z,58.67
2022-10-11T04:24:55.850Z,58.63
2022-10-11T04:27:22.986Z,59.70
2022-10-11T04:29:50.137Z,50.47
2022-10-11T04:32:17.243Z,59.85
2022-10-11T04:34:44.407Z,53.20
2022-10-11T04:37:11.839Z,62.15
2022-10-11T04:39:39.033Z,59.20
2022-10-11T04:42:06.137Z,55.50
2022-10-11T04:44:33.221Z,57.15
2022-10-11T04:47:00.394Z,58.45
2022-10-11T04:49:27.510Z,56.03
2022-10-11T04:51:54.625Z,58.35
2022-10-11T04:54:22.003Z,59.67
2022-10-11T04:56:49.147Z,61.38
2022-10-11T04:59:16.303Z,57.53
2022-10-11T05:01:43.532Z,62.17
2022-10-11T05:04:10.673Z,60.15
2022-10-11T05:06:37.803Z,59.40
2022-10-11T05:09:04.906Z,61.47
2022-10-11T05:11:32.035Z,69.72
2022-10-11T05:13:59.267Z,59.92
2022-10-11T05:16:26.435Z,63.40
2022-10-11T05:18:53.533Z,64.95
2022-10-11T05:21:26.506Z,64.65
2022-10-11T05:23:55.921Z,62.78
2022-10-11T05:26:25.509Z,69.75
2022-10-11T05:28:52.857Z,58.92
2022-10-11T05:31:20.507Z,56.78
2022-10-11T05:33:47.953Z,56.80
2022-10-11T05:36:15.170Z,63.05
2022-10-11T05:38:42.499Z,64.68
2022-10-11T05:41:14.485Z,59.67
2022-10-11T05:43:42.074Z,60.40
2022-10-11T05:46:09.388Z,60.65
2022-10-11T05:48:36.759Z,65.25
2022-10-11T05:51:07.154Z,61.95
2022-10-11T05:53:34.255Z,56.95
2022-10-11T05:56:01.686Z,62.85
2022-10-11T05:58:29.317Z,53.97
2022-10-11T06:00:57.003Z,56.90
2022-10-11T06:03:24.274Z,54.30
2022-10-11T06:05:56.492Z,56.78
2022-10-11T06:08:24.119Z,53.35
2022-10-11T06:10:51.285Z,53.47
2022-10-11T06:13:18.435Z,52.47
2022-10-11T06:15:45.578Z,57.53
2022-10-11T06:18:12.683Z,53.00
2022-10-11T06:20:39.789Z,61.03
2022-10-11T06:23:06.869Z,51.30
2022-10-11T06:25:33.958Z,47.08
2022-10-11T06:28:01.166Z,49.00
2022-10-11T06:30:28.427Z,43.38
2022-10-11T06:32:55.606Z,48.58
2022-10-11T06:35:22.702Z,44.30
2022-10-11T06:37:50.058Z,47.25
2022-10-11T06:40:17.276Z,49.03
2022-10-11T06:42:48.509Z,54.88
2022-10-11T06:45:15.623Z,43.50
2022-10-11T06:47:42.699Z,43.83
2022-10-11T06:50:09.824Z,42.28
2022-10-11T06:52:36.947Z,38.92
2022-10-11T06:55:04.331Z,45.08
2022-10-11T06:57:31.408Z,44.17
2022-10-11T06:59:58.477Z,47.00
2022-10-11T07:02:25.629Z,54.28
2022-10-11T07:04:52.750Z,41.40
2022-10-11T07:07:19.877Z,44.45
2022-10-11T07:09:47.295Z,46.40
2022-10-11T07:12:14.462Z,41.92
2022-10-11T07:14:41.584Z,43.20
2022-10-11T07:17:08.737Z,43.40
2022-10-11T07:19:35.829Z,45.42
2022-10-11T07:22:02.924Z,42.47
2022-10-11T07:24:30.000Z,46.17
2022-10-11T07:26:57.419Z,42.33
2022-10-11T07:29:24.517Z,38.13
2022-10-11T07:31:51.728Z,41.03
2022-10-11T07:34:20.595Z,36.65
2022-10-11T07:36:47.734Z,41.90
2022-10-11T07:39:15.781Z,37.03
2022-10-11T07:41:45.829Z,34.05
2022-10-11T07:44:14.696Z,37.75
2022-10-11T07:46:41.911Z,35.38
2022-10-11T07:49:09.038Z,31.90
2022-10-11T07:51:36.199Z,31.15
2022-10-11T07:54:07.252Z,33.08
2022-10-11T07:56:35.000Z,31.75
2022-10-11T07:59:05.151Z,30.88
2022-10-11T08:01:32.943Z,31.88
2022-10-11T08:04:00.171Z,32.33
2022-10-11T08:06:31.623Z,34.88
2022-10-11T08:09:00.957Z,30.77
2022-10-11T08:11:31.127Z,32.55
2022-10-11T08:14:00.246Z,33.40
2022-10-11T08:16:27.506Z,38.47
2022-10-11T08:18:56.719Z,38.72
2022-10-11T08:21:24.665Z,32.90
2022-10-11T08:23:51.752Z,33.67
2022-10-11T08:26:18.891Z,34.97
2022-10-11T08:28:46.491Z,37.55
2022-10-11T08:31:15.049Z,35.10
2022-10-11T08:33:43.091Z,32.63
2022-10-11T08:36:11.417Z,28.40
2022-10-11T08:38:39.836Z,28.67
2022-10-11T08:41:20.479Z,27.60
2022-10-11T08:43:56.425Z,29.20
2022-10-11T08:46:30.926Z,25.27
2022-10-11T08:48:59.911Z,25.30
2022-10-11T08:51:31.430Z,26.40
2022-10-11T08:56:41.799Z,27.40
2022-10-11T08:59:11.619Z,29.35
2022-10-11T09:01:45.493Z,26.30
2022-10-11T09:04:17.830Z,22.70
2022-10-11T09:07:11.019Z,28.45
2022-10-11T09:10:16.338Z,27.27
2022-10-11T09:12:55.544Z,23.33
2022-10-11T09:15:25.473Z,28.10
2022-10-11T09:17:52.491Z,27.05
2022-10-11T09:20:53.033Z,23.80
2022-10-11T09:23:38.915Z,23.17
2022-10-11T09:26:21.341Z,27.80
2022-10-11T09:29:39.071Z,27.90
2022-10-11T09:32:15.210Z,23.08
2022-10-11T09:34:42.858Z,26.27
2022-10-11T09:37:21.518Z,26.77
2022-10-11T09:40:14.812Z,25.77
2022-10-11T09:42:41.896Z,24.75
2022-10-11T09:45:19.332Z,26.50
2022-10-11T09:47:46.915Z,25.52
2022-10-11T09:50:21.591Z,22.98
2022-10-11T09:52:59.875Z,29.65
2022-10-11T09:55:53.010Z,22.48
2022-10-11T09:58:28.725Z,23.38
2022-10-11T10:01:08.008Z,27.92
2022-10-11T10:03:38.207Z,23.85
2022-10-11T10:06:17.125Z,23.27
2022-10-11T10:08:47.027Z,26.65
2022-10-11T10:11:15.105Z,25.05
2022-10-11T10:13:51.965Z,28.25
2022-10-11T10:16:33.898Z,22.95
2022-10-11T10:19:07.438Z,24.40
2022-10-11T10:21:44.683Z,24.75
2022-10-11T10:24:30.476Z,24.80
2022-10-11T10:27:21.146Z,23.88
2022-10-11T10:30:10.118Z,20.13
2022-10-11T10:32:49.628Z,24.33
2022-10-11T10:35:58.055Z,22.38
2022-10-11T10:38:34.283Z,23.70
2022-10-11T10:41:04.759Z,23.50
2022-10-11T10:43:38.043Z,23.52
2022-10-11T10:51:48.246Z,24.83
2022-10-11T10:54:38.293Z,25.90
2022-10-11T10:57:29.099Z,21.40
2022-10-11T11:00:19.454Z,20.20
2022-10-11T11:02:49.428Z,19.13
2022-10-11T11:05:27.289Z,21.75
2022-10-11T11:08:48.365Z,20.00
2022-10-11T11:11:27.355Z,24.02
2022-10-11T11:14:00.478Z,22.98
2022-10-11T11:19:54.271Z,22.77
2022-10-11T11:22:42.859Z,25.05
2022-10-11T11:25:12.839Z,23.65
2022-10-11T11:27:57.897Z,21.00
2022-10-11T11:30:42.631Z,22.63
2022-10-11T11:33:15.119Z,24.05
2022-10-11T11:36:13.806Z,22.02
2022-10-11T11:38:59.854Z,24.35
2022-10-11T11:41:55.740Z,27.90
2022-10-11T11:44:35.691Z,26.40
2022-10-11T11:47:02.816Z,32.28
2022-10-11T11:49:39.136Z,27.40
2022-10-11T11:52:13.054Z,23.02
2022-10-11T11:55:01.450Z,22.20
2022-10-11T11:58:06.788Z,18.98
2022-10-11T12:01:07.369Z,23.30
2022-10-11T12:03:42.047Z,20.98
2022-10-11T12:06:12.278Z,18.15
2022-10-11T12:08:42.365Z,19.83
2022-10-11T12:11:20.799Z,21.60
2022-10-11T12:13:50.778Z,26.65
2022-10-11T12:16:19.057Z,19.17
2022-10-11T12:18:48.219Z,22.80
2022-10-11T12:21:38.750Z,18.85
2022-10-11T12:24:20.814Z,15.95
2022-10-11T12:26:55.531Z,18.20
2022-10-11T12:29:28.512Z,21.90
2022-10-11T12:31:58.763Z,15.45
2022-10-11T12:34:37.868Z,29.55
2022-10-11T12:37:20.110Z,18.52
2022-10-11T12:39:58.064Z,16.10
2022-10-11T12:42:36.778Z,16.80
2022-10-11T12:45:13.096Z,16.60
2022-10-11T12:47:48.090Z,16.90
2022-10-11T12:50:17.649Z,13.32
2022-10-11T12:53:21.926Z,13.65
2022-10-11T12:56:09.749Z,14.13
2022-10-11T12:58:41.325Z,12.90
2022-10-11T13:01:12.908Z,16.88
2022-10-11T13:03:43.129Z,18.35
2022-10-11T13:06:26.359Z,24.52
2022-10-11T13:09:35.124Z,15.77
2022-10-11T13:12:19.374Z,13.07
2022-10-11T13:15:07.044Z,17.10
2022-10-11T13:17:38.663Z,17.98
2022-10-11T13:20:18.127Z,17.02
2022-10-11T13:22:52.107Z,15.23
2022-10-11T13:25:28.497Z,17.80
2022-10-11T13:27:59.445Z,12.05
2022-10-11T13:30:30.669Z,16.77
2022-10-11T13:32:59.418Z,18.23
2022-10-11T13:35:36.203Z,19.00
2022-10-11T13:38:07.327Z,11.95
2022-10-11T13:40:35.522Z,11.82
2022-10-11T13:43:05.528Z,13.88
2022-10-11T13:45:35.793Z,15.95
2022-10-11T13:48:03.161Z,18.52
2022-10-11T13:50:34.280Z,13.18
2022-10-11T13:53:09.337Z,14.27
2022-10-11T13:55:49.814Z,14.38
2022-10-11T13:58:30.173Z,10.95
2022-10-11T14:01:16.661Z,11.52
2022-10-11T14:03:47.347Z,13.02
2022-10-11T14:06:15.101Z,10.43
2022-10-11T14:08:42.197Z,13.00
2022-10-11T14:11:11.545Z,14.90
2022-10-11T14:13:49.882Z,10.32
2022-10-11T14:16:20.194Z,9.82
2022-10-11T14:18:47.304Z,15.07
2022-10-11T14:21:20.507Z,12.88
2022-10-11T14:23:51.810Z,12.85
2022-10-11T14:26:20.162Z,11.65
2022-10-11T14:28:56.130Z,10.00
2022-10-11T14:31:26.815Z,11.30
2022-10-11T14:33:55.544Z,11.23
2022-10-11T14:36:23.732Z,10.68
2022-10-11T14:38:51.810Z,15.75
2022-10-11T14:41:19.015Z,16.95
2022-10-11T14:43:46.174Z,13.10
2022-10-11T14:46:22.327Z,12.85
2022-10-11T14:48:55.495Z,15.63
2022-10-11T14:51:30.295Z,12.63
2022-10-11T14:53:58.257Z,12.95
2022-10-11T14:56:25.371Z,12.90
2022-10-11T14:58:52.478Z,15.05
2022-10-11T15:01:19.677Z,14.65
2022-10-11T15:03:46.978Z,14.10
2022-10-11T15:06:36.802Z,14.85
2022-10-11T15:09:05.125Z,13.00
2022-10-11T15:11:32.764Z,15.57
2022-10-11T15:13:59.922Z,10.13
2022-10-11T15:16:27.050Z,10.02
2022-10-11T15:18:54.193Z,13.15
2022-10-11T15:21:24.210Z,11.02
2022-10-11T15:23:52.457Z,22.88
2022-10-11T15:26:22.904Z,16.70
2022-10-11T15:28:51.231Z,13.98
2022-10-11T15:31:18.793Z,14.23
2022-10-11T15:33:46.153Z,11.60
2022-10-11T15:36:16.271Z,13.48
2022-10-11T15:38:44.795Z,11.88
2022-10-11T15:41:14.684Z,12.57
2022-10-11T15:43:43.551Z,13.30
2022-10-11T15:46:17.402Z,12.88
2022-10-11T15:48:45.414Z,14.32
2022-10-11T15:51:13.085Z,18.48
2022-10-11T15:53:40.761Z,12.68
2022-10-11T15:56:12.643Z,13.20
2022-10-11T15:58:40.970Z,11.10
2022-10-11T16:01:12.758Z,17.15
2022-10-11T16:03:40.243Z,16.00
2022-10-11T16:06:11.262Z,11.98
2022-10-11T16:08:39.144Z,14.18
2022-10-11T16:11:08.106Z,13.98
2022-10-11T16:13:36.170Z,12.63
2022-10-11T16:16:05.810Z,15.50
2022-10-11T16:18:35.656Z,14.55
2022-10-11T16:21:08.428Z,14.98
2022-10-11T16:23:36.759Z,13.95
2022-10-11T16:26:07.683Z,20.13
2022-10-11T16:28:35.607Z,15.18
2022-10-11T16:31:08.162Z,16.30
2022-10-11T16:33:35.510Z,15.70
2022-10-11T16:36:26.230Z,12.23
2022-10-11T16:38:53.310Z,16.15
2022-10-11T16:41:20.386Z,13.98
2022-10-11T16:43:52.045Z,16.83
2022-10-11T16:46:19.719Z,15.10
2022-10-11T16:48:47.651Z,16.13
2022-10-11T16:51:14.955Z,16.15
2022-10-11T16:53:42.078Z,14.15
2022-10-11T16:56:11.374Z,11.40
2022-10-11T16:58:38.647Z,17.80
2022-10-11T17:01:10.790Z,12.27
2022-10-11T17:03:38.030Z,15.55
2022-10-11T17:06:06.606Z,13.45
2022-10-11T17:08:35.111Z,14.10
2022-10-11T17:11:03.320Z,13.95
2022-10-11T17:13:30.733Z,15.38
2022-10-11T17:15:58.154Z,15.55
2022-10-11T17:18:25.683Z,14.55
2022-10-11T17:21:14.753Z,14.75
2022-10-11T17:23:42.641Z,10.23
2022-10-11T17:26:15.786Z,13.90
2022-10-11T17:28:43.274Z,10.80
2022-10-11T17:31:10.705Z,14.85
2022-10-11T17:33:38.377Z,15.43
2022-10-11T17:36:19.332Z,16.55
2022-10-11T17:38:47.262Z,20.40
2022-10-11T17:41:15.379Z,13.35
2022-10-11T17:43:42.679Z,15.95
2022-10-11T17:46:12.262Z,13.93
2022-10-11T17:48:40.006Z,16.67
2022-10-11T17:51:10.001Z,14.38
2022-10-11T17:53:37.703Z,16.38
2022-10-11T17:56:07.683Z,16.45
2022-10-11T17:58:35.667Z,18.30
2022-10-11T18:01:08.734Z,16.83
2022-10-11T18:03:36.511Z,16.52
2022-10-11T18:06:05.550Z,18.98
2022-10-11T18:08:40.467Z,17.73
2022-10-11T18:11:16.795Z,15.90
2022-10-11T18:13:46.902Z,18.70
2022-10-11T18:16:15.855Z,18.27
2022-10-11T18:18:43.695Z,14.60
2022-10-11T18:21:11.879Z,17.20
2022-10-11T18:23:39.513Z,18.33
2022-10-11T18:26:21.078Z,17.77
2022-10-11T18:28:49.341Z,16.95
2022-10-11T18:31:19.969Z,15.50
2022-10-11T18:33:47.820Z,13.93
2022-10-11T18:36:16.650Z,13.50
2022-10-11T18:38:49.175Z,15.88
2022-10-11T18:41:19.537Z,15.73
2022-10-11T18:43:54.515Z,19.10
2022-10-11T18:46:22.820Z,12.02
2022-10-11T18:48:52.499Z,11.95
2022-10-11T18:51:32.149Z,20.27
2022-10-11T18:54:00.389Z,14.32
2022-10-11T18:56:29.050Z,47.83
2022-10-11T18:58:57.398Z,55.47
2022-10-11T19:01:28.868Z,31.33
2022-10-11T19:03:59.033Z,31.33
2022-10-11T19:06:32.862Z,25.20
2022-10-11T19:09:11.903Z,22.40
2022-10-11T19:11:39.838Z,22.42
2022-10-11T19:14:11.292Z,22.13
2022-10-11T19:16:42.098Z,18.65
2022-10-11T19:19:11.785Z,25.83
2022-10-11T19:21:39.419Z,22.65
2022-10-11T19:24:06.918Z,31.52
2022-10-11T19:26:37.084Z,23.73
2022-10-11T19:29:07.962Z,24.15
2022-10-11T19:31:40.411Z,20.75
2022-10-11T19:34:07.622Z,21.20
2022-10-11T19:36:36.846Z,28.27
2022-10-11T19:39:05.740Z,26.33
2022-10-11T19:41:34.093Z,29.77
2022-10-11T19:44:01.225Z,30.65
2022-10-11T19:49:17.733Z,31.88
2022-10-11T19:51:44.958Z,29.52
2022-10-11T19:54:13.739Z,35.20
2022-10-11T19:56:40.876Z,31.13
2022-10-11T19:59:08.503Z,25.83
2022-10-11T20:01:36.452Z,32.28
2022-10-11T20:04:06.585Z,30.42
2022-10-11T20:06:38.631Z,32.70
2022-10-11T20:09:28.627Z,26.52
2022-10-11T20:11:55.209Z,24.75
2022-10-11T20:14:22.468Z,31.65
2022-10-11T20:16:50.567Z,28.52
2022-10-11T20:19:18.531Z,22.20
2022-10-11T20:21:45.721Z,28.50
2022-10-11T20:24:13.036Z,23.92
2022-10-11T20:26:40.263Z,24.70
2022-10-11T20:29:07.391Z,26.67
2022-10-11T20:31:38.402Z,25.27
2022-10-11T20:34:07.274Z,29.05
2022-10-11T20:36:36.122Z,25.02
2022-10-11T20:39:05.333Z,26.63
2022-10-11T20:41:37.020Z,25.77
2022-10-11T20:44:05.165Z,26.92
2022-10-11T20:46:34.507Z,28.83
2022-10-11T20:49:07.768Z,33.42
2022-10-11T20:51:36.988Z,26.80
2022-10-11T20:54:04.755Z,28.38
2022-10-11T20:56:32.234Z,30.25
2022-10-11T20:58:59.571Z,31.80
2022-10-11T21:01:33.218Z,33.33
2022-10-11T21:06:29.579Z,26.30
2022-10-11T21:08:58.985Z,25.70
2022-10-11T21:11:27.028Z,30.25
2022-10-11T21:13:58.940Z,27.00
2022-10-11T21:16:26.481Z,28.70
2022-10-11T21:18:55.544Z,32.83
2022-10-11T21:21:23.985Z,30.85
2022-10-11T21:23:55.426Z,26.90
2022-10-11T21:26:22.837Z,31.60
2022-10-11T21:28:50.084Z,29.15
2022-10-11T21:31:19.683Z,35.65
2022-10-11T21:33:46.856Z,28.23
2022-10-11T21:36:17.349Z,26.80
2022-10-11T21:38:45.114Z,34.00
2022-10-11T21:41:15.390Z,29.88
2022-10-11T21:43:42.980Z,26.98
2022-10-11T21:46:16.130Z,32.97
2022-10-11T21:48:43.894Z,27.50
2022-10-11T21:51:21.752Z,32.03
2022-10-11T21:53:48.880Z,29.42
2022-10-11T21:56:15.986Z,27.55
2022-10-11T21:58:43.146Z,28.58
2022-10-11T22:01:11.035Z,29.73
2022-10-11T22:03:38.130Z,29.77
2022-10-11T22:06:05.649Z,28.92
2022-10-11T22:08:33.182Z,29.20
2022-10-11T22:11:01.506Z,28.52
2022-10-11T22:13:31.224Z,26.67
2022-10-11T22:16:01.851Z,29.23
2022-10-11T22:18:33.295Z,30.35
2022-10-11T22:21:13.388Z,29.88
2022-10-11T22:23:46.455Z,24.90
2022-10-11T22:26:26.050Z,35.92
2022-10-11T22:28:53.423Z,30.98
2022-10-11T22:31:21.950Z,29.67
2022-10-11T22:33:53.773Z,31.45
2022-10-11T22:36:21.275Z,29.90
2022-10-11T22:38:48.385Z,29.75
2022-10-11T22:41:15.478Z,29.95
2022-10-11T22:43:42.672Z,28.88
2022-10-11T22:46:10.330Z,31.02
2022-10-11T22:48:37.697Z,32.58
2022-10-11T22:51:04.962Z,29.13
2022-10-11T22:53:32.374Z,29.42
2022-10-11T22:55:59.497Z,27.92
2022-10-11T22:58:26.974Z,28.20
2022-10-11T23:00:54.107Z,33.28
2022-10-11T23:03:21.281Z,31.17
2022-10-11T23:05:56.500Z,29.63
2022-10-11T23:08:23.758Z,32.88
2022-10-11T23:10:51.133Z,34.47
2022-10-11T23:13:18.387Z,30.77
2022-10-11T23:15:45.610Z,29.05
2022-10-11T23:18:12.858Z,31.08
2022-10-11T23:20:39.998Z,28.00
2022-10-11T23:23:07.442Z,29.73
2022-10-11T23:25:34.547Z,33.10
2022-10-11T23:28:02.088Z,30.10
2022-10-11T23:30:29.542Z,30.10
2022-10-11T23:32:56.918Z,26.98
2022-10-11T23:35:24.240Z,26.38
2022-10-11T23:37:54.011Z,31.90
2022-10-11T23:40:21.206Z,30.67
2022-10-11T23:42:48.338Z,29.05
2022-10-11T23:45:15.542Z,37.42
2022-10-11T23:47:42.662Z,36.63
2022-10-11T23:50:10.244Z,32.10
2022-10-11T23:52:37.361Z,33.20
2022-10-11T23:55:04.787Z,36.10
2022-10-11T23:57:31.870Z,36.72
2022-10-11T23:59:59.088Z,35.47
